Time;durP1;ratioP1;P1;durP2;ratioP2;P2;SDS_P1;SDS_P2;PMS_P1;PMS_P2;Temp;Humidity;BMP_temperature;BMP_pressure;BME280_temperature;BME280_humidity;BME280_pressure;Samples;Min_cycle;Max_cycle;Signal;HPM_P1;HPM_P2
2022/11/29 00:01:35;;;;;;;38.22;24.02;;;8.10;83.90;;;;;;5055517;28;20224;-70
2022/11/29 00:04:04;;;;;;;37.13;22.75;;;8.10;83.90;;;;;;5051376;28;20200;-68
2022/11/29 00:06:35;;;;;;;39.50;24.08;;;8.10;83.90;;;;;;5051899;28;20204;-71
2022/11/29 00:09:06;;;;;;;35.45;22.80;;;8.10;83.90;;;;;;5053045;28;20223;-70
2022/11/29 00:14:23;;;;;;;37.72;22.88;;;8.10;84.00;;;;;;5051440;28;20204;-71
2022/11/29 00:16:52;;;;;;;35.42;22.20;;;8.10;83.90;;;;;;5055043;28;20397;-71
2022/11/29 00:19:21;;;;;;;39.58;23.10;;;8.10;84.00;;;;;;5055267;28;20631;-71
2022/11/29 00:21:50;;;;;;;39.13;24.85;;;8.10;84.00;;;;;;5055676;28;20215;-69
2022/11/29 00:24:18;;;;;;;39.38;23.33;;;8.10;84.00;;;;;;5055336;28;20778;-68
2022/11/29 00:26:47;;;;;;;37.22;23.98;;;8.10;84.00;;;;;;5053929;28;20209;-68
2022/11/29 00:29:15;;;;;;;37.83;25.15;;;8.10;84.00;;;;;;5051943;28;20219;-74
2022/11/29 00:31:44;;;;;;;35.05;24.08;;;8.10;84.00;;;;;;5052854;28;20247;-71
2022/11/29 00:34:15;;;;;;;37.60;23.13;;;8.10;84.00;;;;;;5057311;28;20215;-72
2022/11/29 00:36:43;;;;;;;38.42;23.95;;;8.10;84.00;;;;;;5055910;28;20203;-70
2022/11/29 00:39:13;;;;;;;37.83;22.42;;;8.10;84.10;;;;;;5055579;28;20200;-70
2022/11/29 00:41:41;;;;;;;35.28;23.75;;;8.10;84.10;;;;;;5055535;28;20230;-71
2022/11/29 00:44:09;;;;;;;37.28;22.92;;;8.10;84.10;;;;;;5053947;28;20216;-68
2022/11/29 00:46:45;;;;;;;33.55;20.98;;;8.10;84.10;;;;;;5056409;28;20208;-69
2022/11/29 00:49:13;;;;;;;35.47;23.35;;;8.10;84.10;;;;;;5055484;28;20208;-73
2022/11/29 00:51:41;;;;;;;40.03;23.98;;;8.10;84.10;;;;;;5054400;28;20613;-68
2022/11/29 00:54:09;;;;;;;39.35;23.20;;;8.10;84.10;;;;;;5061976;28;20248;-68
2022/11/29 00:56:38;;;;;;;37.95;23.70;;;8.10;84.10;;;;;;5056342;28;20212;-71
2022/11/29 00:59:06;;;;;;;37.28;23.05;;;8.10;84.10;;;;;;5054805;28;20204;-70
2022/11/29 01:01:34;;;;;;;33.30;21.25;;;8.10;84.10;;;;;;5057832;28;20231;-68
2022/11/29 01:04:03;;;;;;;39.50;22.30;;;8.10;84.10;;;;;;5055379;28;20201;-69
2022/11/29 01:06:30;;;;;;;37.83;21.45;;;8.10;84.10;;;;;;5055280;28;20233;-69
2022/11/29 01:08:58;;;;;;;34.53;21.83;;;8.10;84.10;;;;;;5057645;28;20226;-69
2022/11/29 01:11:27;;;;;;;33.47;20.75;;;8.10;84.20;;;;;;5056078;28;21004;-70
2022/11/29 01:13:59;;;;;;;34.45;22.08;;;8.10;84.20;;;;;;5056958;28;20195;-71
2022/11/29 01:16:28;;;;;;;32.88;22.67;;;8.10;84.20;;;;;;5053493;28;20669;-70
2022/11/29 01:18:57;;;;;;;35.33;22.65;;;8.10;84.20;;;;;;5055131;28;20228;-73
2022/11/29 01:21:25;;;;;;;34.78;22.60;;;8.10;84.20;;;;;;5056223;28;20216;-73
2022/11/29 01:23:54;;;;;;;34.13;21.83;;;8.10;84.20;;;;;;5049515;28;20216;-73
2022/11/29 01:26:24;;;;;;;34.75;22.50;;;8.10;84.20;;;;;;5057338;28;20918;-71
2022/11/29 01:28:54;;;;;;;35.08;20.98;;;8.10;84.20;;;;;;5054835;28;20220;-72
2022/11/29 01:31:25;;;;;;;31.65;21.23;;;8.10;84.20;;;;;;5054522;28;20254;-70
2022/11/29 01:33:54;;;;;;;31.00;21.13;;;8.10;84.20;;;;;;5051711;28;20211;-69
2022/11/29 01:36:22;;;;;;;30.77;20.07;;;8.10;84.20;;;;;;5055570;28;20204;-73
2022/11/29 01:38:50;;;;;;;33.45;22.02;;;8.10;84.20;;;;;;5052322;28;20988;-70
2022/11/29 01:41:20;;;;;;;29.88;20.75;;;8.10;84.20;;;;;;5058087;28;20223;-72
2022/11/29 01:44:01;;;;;;;35.15;22.08;;;8.10;84.20;;;;;;5053216;28;20758;-72
2022/11/29 01:46:32;;;;;;;33.88;22.55;;;8.10;84.20;;;;;;5055855;28;20672;-70
2022/11/29 01:49:04;;;;;;;32.05;20.65;;;8.10;84.20;;;;;;5054213;28;20274;-69
2022/11/29 01:51:34;;;;;;;33.60;21.25;;;8.10;84.20;;;;;;5049826;28;20286;-72
2022/11/29 01:54:02;;;;;;;29.13;20.75;;;8.10;84.20;;;;;;5054208;28;20207;-69
2022/11/29 01:56:33;;;;;;;31.95;20.67;;;8.10;84.20;;;;;;5054934;28;20216;-70
2022/11/29 01:59:02;;;;;;;32.65;20.73;;;8.10;84.20;;;;;;5056381;28;20199;-71
2022/11/29 02:01:33;;;;;;;29.88;18.98;;;8.10;84.20;;;;;;5056212;28;20269;-71
2022/11/29 02:04:01;;;;;;;28.67;19.25;;;8.10;84.20;;;;;;5054926;28;20218;-73
2022/11/29 02:06:30;;;;;;;36.72;21.63;;;8.10;84.20;;;;;;5058419;28;20212;-71
2022/11/29 02:08:58;;;;;;;31.97;21.10;;;8.10;84.20;;;;;;5056274;28;20212;-70
2022/11/29 02:11:58;;;;;;;32.67;20.40;;;8.10;84.30;;;;;;5054245;28;20490;-68
2022/11/29 02:15:07;;;;;;;30.67;19.70;;;8.10;84.30;;;;;;5051964;28;21221;-71
2022/11/29 02:17:44;;;;;;;33.95;20.48;;;8.10;84.30;;;;;;4995015;28;20209;-73
2022/11/29 02:20:45;;;;;;;31.73;20.65;;;8.10;84.30;;;;;;4981071;28;20841;-70
2022/11/29 02:23:41;;;;;;;28.77;19.00;;;8.10;84.30;;;;;;5041350;28;20235;-72
2022/11/29 02:26:21;;;;;;;31.15;19.40;;;8.10;84.40;;;;;;5057275;28;20212;-70
2022/11/29 02:29:12;;;;;;;31.03;20.30;;;8.10;84.30;;;;;;5052630;28;20211;-72
2022/11/29 02:32:15;;;;;;;38.40;20.67;;;8.10;84.40;;;;;;5056208;28;20528;-70
2022/11/29 02:35:02;;;;;;;32.30;20.08;;;8.10;84.40;;;;;;5066358;28;20219;-71
2022/11/29 02:38:06;;;;;;;36.92;20.95;;;8.10;84.40;;;;;;5054532;28;20253;-68
2022/11/29 02:41:04;;;;;;;34.85;21.60;;;8.10;84.40;;;;;;5056183;28;20748;-69
2022/11/29 02:44:06;;;;;;;32.08;19.80;;;8.10;84.40;;;;;;5059482;28;20212;-69
2022/11/29 02:46:49;;;;;;;28.60;19.20;;;8.10;84.40;;;;;;5059848;28;20200;-71
2022/11/29 02:49:27;;;;;;;32.35;21.17;;;8.10;84.40;;;;;;5056802;28;20222;-72
2022/11/29 02:52:00;;;;;;;32.72;21.83;;;8.10;84.40;;;;;;5059696;28;20228;-71
2022/11/29 02:54:36;;;;;;;30.65;20.13;;;8.10;84.40;;;;;;5058964;28;20787;-71
2022/11/29 02:57:17;;;;;;;33.58;20.85;;;8.10;84.50;;;;;;5054767;28;20200;-72
2022/11/29 02:59:53;;;;;;;32.83;20.67;;;8.10;84.50;;;;;;5060433;28;20200;-70
2022/11/29 03:02:27;;;;;;;33.80;20.50;;;8.10;84.50;;;;;;5059019;28;20868;-70
2022/11/29 03:05:03;;;;;;;31.48;20.15;;;8.10;84.50;;;;;;5058168;28;20206;-70
2022/11/29 03:07:39;;;;;;;34.63;21.42;;;8.10;84.50;;;;;;5056417;28;20195;-72
2022/11/29 03:10:14;;;;;;;34.35;21.08;;;8.10;84.50;;;;;;5057526;28;20228;-69
2022/11/29 03:12:45;;;;;;;41.13;24.70;;;8.10;84.50;;;;;;5057635;28;20223;-72
2022/11/29 03:15:22;;;;;;;55.30;30.55;;;8.10;84.50;;;;;;5055266;28;20195;-70
2022/11/29 03:18:01;;;;;;;39.25;24.52;;;8.10;84.40;;;;;;5058214;28;20208;-69
2022/11/29 03:20:38;;;;;;;49.22;27.10;;;8.10;84.50;;;;;;5056146;28;20257;-69
2022/11/29 03:23:22;;;;;;;43.03;26.45;;;8.10;84.50;;;;;;5059157;28;20231;-68
2022/11/29 03:25:56;;;;;;;47.25;26.30;;;8.10;84.50;;;;;;5054672;28;20890;-74
2022/11/29 03:28:30;;;;;;;56.33;27.02;;;8.10;84.50;;;;;;5057317;28;20238;-73
2022/11/29 03:31:06;;;;;;;45.83;26.58;;;8.10;84.50;;;;;;5054959;28;20222;-70
2022/11/29 03:33:44;;;;;;;45.95;27.58;;;8.10;84.60;;;;;;5056397;28;20281;-72
2022/11/29 03:36:23;;;;;;;42.42;26.10;;;8.00;84.60;;;;;;5057944;28;20211;-68
2022/11/29 03:38:56;;;;;;;45.75;26.77;;;8.00;84.70;;;;;;5054527;28;20204;-68
2022/11/29 03:41:30;;;;;;;38.63;24.40;;;8.00;84.70;;;;;;5054343;28;20716;-68
2022/11/29 03:44:03;;;;;;;48.03;27.10;;;8.00;84.80;;;;;;5058556;28;20215;-70
2022/11/29 03:46:37;;;;;;;43.45;26.00;;;8.10;84.70;;;;;;5071663;28;20213;-71
2022/11/29 03:49:13;;;;;;;50.85;27.30;;;8.10;84.70;;;;;;5056322;28;20250;-70
2022/11/29 03:51:55;;;;;;;46.90;27.83;;;8.00;84.70;;;;;;5060277;28;20272;-69
2022/11/29 03:54:27;;;;;;;48.08;28.95;;;8.00;84.60;;;;;;5056071;28;20611;-71
2022/11/29 03:56:55;;;;;;;49.85;28.02;;;8.00;84.70;;;;;;5056797;28;20192;-69
2022/11/29 03:59:48;;;;;;;54.95;29.95;;;7.90;84.70;;;;;;5054717;28;20197;-68
2022/11/29 04:02:51;;;;;;;51.30;28.58;;;7.90;84.80;;;;;;5058871;28;20746;-70
2022/11/29 04:05:58;;;;;;;47.22;25.67;;;7.90;85.00;;;;;;5056029;28;20242;-70
2022/11/29 04:08:59;;;;;;;63.67;34.60;;;7.90;85.10;;;;;;5056760;28;20221;-71
2022/11/29 04:11:53;;;;;;;61.90;32.10;;;7.90;85.00;;;;;;5059848;28;20227;-69
2022/11/29 04:14:47;;;;;;;52.60;28.38;;;7.90;85.00;;;;;;5059322;28;20208;-71
2022/11/29 04:17:55;;;;;;;55.42;28.85;;;7.90;85.00;;;;;;5057186;28;20732;-71
2022/11/29 04:20:52;;;;;;;56.38;29.38;;;7.90;85.00;;;;;;5054001;28;20207;-70
2022/11/29 04:23:53;;;;;;;58.53;28.33;;;7.90;85.00;;;;;;5058548;28;20477;-70
2022/11/29 04:26:47;;;;;;;62.03;31.55;;;7.90;85.10;;;;;;5021505;28;20215;-69
2022/11/29 04:29:39;;;;;;;54.67;31.05;;;7.90;85.10;;;;;;5059812;28;20207;-69
2022/11/29 04:32:32;;;;;;;59.75;31.65;;;7.90;85.10;;;;;;5058031;28;20580;-74
2022/11/29 04:35:24;;;;;;;67.93;33.05;;;7.80;85.10;;;;;;5057959;28;20196;-70
2022/11/29 04:38:14;;;;;;;65.60;32.20;;;7.80;85.10;;;;;;5053812;28;20669;-71
2022/11/29 04:41:08;;;;;;;63.00;29.88;;;7.70;85.10;;;;;;5053986;28;20193;-69
2022/11/29 04:43:54;;;;;;;65.60;32.45;;;7.60;85.20;;;;;;5055338;28;20193;-71
2022/11/29 04:46:54;;;;;;;79.57;35.40;;;7.60;85.30;;;;;;5054734;28;20211;-70
2022/11/29 04:49:56;;;;;;;59.50;33.55;;;7.60;85.40;;;;;;5053712;28;20193;-70
2022/11/29 04:52:42;;;;;;;66.38;32.40;;;7.60;85.40;;;;;;5056538;28;20227;-72
2022/11/29 04:55:19;;;;;;;65.82;33.60;;;7.60;85.50;;;;;;5054150;28;20219;-72
2022/11/29 04:58:09;;;;;;;65.03;33.00;;;7.50;85.40;;;;;;5056786;28;20207;-70
2022/11/29 05:00:46;;;;;;;72.20;35.10;;;7.50;85.50;;;;;;5059185;28;20199;-68
2022/11/29 05:03:20;;;;;;;65.90;34.30;;;7.50;85.50;;;;;;5057712;28;20306;-72
2022/11/29 05:05:57;;;;;;;71.80;36.72;;;7.50;85.60;;;;;;5059016;28;20211;-72
2022/11/29 05:08:33;;;;;;;64.72;33.15;;;7.50;85.60;;;;;;5058729;28;20756;-69
2022/11/29 05:11:10;;;;;;;63.03;33.20;;;7.40;85.80;;;;;;5053954;28;20230;-74
2022/11/29 05:13:45;;;;;;;66.47;34.17;;;7.40;85.90;;;;;;5071573;28;20212;-70
2022/11/29 05:16:31;;;;;;;72.20;34.83;;;7.40;85.90;;;;;;5053876;28;20204;-71
2022/11/29 05:19:20;;;;;;;60.33;33.17;;;7.40;86.00;;;;;;5055435;28;20681;-68
2022/11/29 05:21:55;;;;;;;69.45;32.17;;;7.40;86.00;;;;;;5053998;28;20208;-68
2022/11/29 05:24:36;;;;;;;66.75;34.65;;;7.40;86.10;;;;;;5056676;28;20221;-71
2022/11/29 05:27:13;;;;;;;57.00;31.55;;;7.50;86.10;;;;;;5056123;28;20191;-69
2022/11/29 05:29:49;;;;;;;63.45;33.72;;;7.50;86.00;;;;;;5058381;28;20211;-71
2022/11/29 05:32:32;;;;;;;61.00;32.55;;;7.50;86.00;;;;;;5055981;28;20284;-70
2022/11/29 05:35:41;;;;;;;71.43;33.50;;;7.50;86.00;;;;;;5057826;28;20192;-69
2022/11/29 05:38:24;;;;;;;59.35;33.08;;;7.50;86.00;;;;;;5054792;28;20205;-70
2022/11/29 05:41:05;;;;;;;57.92;33.92;;;7.50;86.10;;;;;;5057436;28;20251;-70
2022/11/29 05:43:49;;;;;;;62.90;33.50;;;7.50;86.00;;;;;;5056599;28;20188;-69
2022/11/29 05:46:22;;;;;;;66.32;34.03;;;7.50;86.10;;;;;;5056166;28;20208;-68
2022/11/29 05:49:00;;;;;;;58.58;32.53;;;7.50;86.20;;;;;;5054075;28;20258;-72
2022/11/29 05:51:38;;;;;;;63.85;33.30;;;7.50;86.20;;;;;;5056390;28;21156;-69
2022/11/29 05:54:18;;;;;;;58.10;32.55;;;7.50;86.20;;;;;;5056630;28;20669;-77
2022/11/29 05:56:55;;;;;;;52.97;30.23;;;7.50;86.30;;;;;;5053522;28;20211;-72
2022/11/29 05:59:27;;;;;;;61.17;31.58;;;7.60;86.20;;;;;;5054831;28;20196;-69
2022/11/29 06:02:03;;;;;;;55.92;29.83;;;7.60;86.20;;;;;;5057564;28;20223;-69
2022/11/29 06:04:56;;;;;;;57.63;32.30;;;7.60;86.30;;;;;;5054057;28;20206;-70
2022/11/29 06:07:30;;;;;;;57.20;30.50;;;7.60;86.30;;;;;;5052833;28;20224;-70
2022/11/29 06:10:02;;;;;;;58.25;32.70;;;7.60;86.30;;;;;;5054863;28;20204;-70
2022/11/29 06:12:34;;;;;;;57.05;32.22;;;7.70;86.30;;;;;;5057605;28;20235;-71
2022/11/29 06:15:35;;;;;;;52.08;28.85;;;7.70;86.30;;;;;;5058797;28;20201;-71
2022/11/29 06:18:22;;;;;;;50.20;29.70;;;7.70;86.40;;;;;;5055100;28;20212;-71
2022/11/29 06:21:11;;;;;;;56.10;30.45;;;7.80;86.30;;;;;;5057607;28;20207;-70
2022/11/29 06:24:01;;;;;;;52.45;28.63;;;7.80;86.10;;;;;;5057577;28;20200;-72
2022/11/29 06:26:47;;;;;;;57.33;31.63;;;7.70;86.10;;;;;;5054056;28;20199;-71
2022/11/29 06:29:25;;;;;;;52.97;29.13;;;7.70;86.10;;;;;;5057053;28;20261;-68
2022/11/29 06:32:00;;;;;;;53.83;30.30;;;7.70;86.20;;;;;;5054496;28;20224;-70
2022/11/29 06:34:36;;;;;;;50.92;30.15;;;7.70;86.10;;;;;;5061065;28;20200;-69
2022/11/29 06:37:14;;;;;;;61.13;32.17;;;7.70;86.10;;;;;;5058732;28;20200;-69
2022/11/29 06:39:42;;;;;;;60.25;30.35;;;7.70;86.10;;;;;;5057558;28;20204;-72
2022/11/29 06:42:10;;;;;;;55.05;31.45;;;7.60;86.10;;;;;;5054719;28;20228;-71
2022/11/29 06:44:38;;;;;;;56.83;32.30;;;7.60;86.20;;;;;;5056006;28;20204;-71
2022/11/29 06:47:11;;;;;;;54.70;34.08;;;7.60;86.30;;;;;;5051839;28;20205;-71
2022/11/29 06:49:45;;;;;;;60.75;32.67;;;7.70;86.20;;;;;;5056420;28;20697;-71
2022/11/29 06:52:24;;;;;;;59.72;32.83;;;7.70;86.30;;;;;;5054884;28;21168;-71
2022/11/29 06:55:06;;;;;;;52.95;31.33;;;7.70;86.30;;;;;;5056268;28;20628;-71
2022/11/29 06:57:46;;;;;;;58.13;34.00;;;7.70;86.30;;;;;;5060442;28;20677;-72
2022/11/29 07:00:19;;;;;;;54.22;29.60;;;7.70;86.40;;;;;;5058753;28;20200;-71
2022/11/29 07:03:18;;;;;;;62.17;35.00;;;7.80;86.30;;;;;;5064513;28;20232;-72
2022/11/29 07:05:47;;;;;;;61.70;34.33;;;7.80;86.30;;;;;;5057527;28;20208;-72
2022/11/29 07:08:19;;;;;;;54.65;31.88;;;7.80;86.30;;;;;;5058638;28;20200;-70
2022/11/29 07:10:50;;;;;;;58.78;33.10;;;7.80;86.30;;;;;;5057110;28;20209;-72
2022/11/29 07:13:19;;;;;;;59.38;32.47;;;7.90;86.20;;;;;;5056630;28;20227;-71
2022/11/29 07:16:02;;;;;;;58.42;32.55;;;7.90;86.20;;;;;;5056435;28;20677;-71
2022/11/29 07:18:40;;;;;;;56.88;30.08;;;7.80;86.20;;;;;;5063614;28;20281;-68
2022/11/29 07:21:17;;;;;;;58.08;33.00;;;7.80;86.20;;;;;;5056936;28;20203;-72
2022/11/29 07:23:55;;;;;;;55.45;31.60;;;7.90;86.20;;;;;;5056725;28;20219;-73
2022/11/29 07:26:33;;;;;;;57.53;29.90;;;7.80;86.10;;;;;;5060112;28;20196;-73
2022/11/29 07:29:15;;;;;;;57.53;32.00;;;7.90;86.10;;;;;;5052395;28;20208;-71
2022/11/29 07:31:52;;;;;;;55.20;31.13;;;7.80;86.00;;;;;;5056089;28;20224;-73
2022/11/29 07:34:31;;;;;;;50.10;30.63;;;7.80;85.90;;;;;;5054728;28;20320;-71
2022/11/29 07:37:06;;;;;;;61.72;32.83;;;7.70;85.90;;;;;;5057227;28;20213;-70
2022/11/29 07:39:47;;;;;;;52.40;29.55;;;7.70;86.00;;;;;;5060713;28;20234;-72
2022/11/29 07:42:22;;;;;;;59.35;31.25;;;7.70;86.00;;;;;;5060989;28;20724;-72
2022/11/29 07:44:59;;;;;;;60.25;33.38;;;7.70;86.10;;;;;;5053906;28;20208;-71
2022/11/29 07:47:27;;;;;;;59.78;34.55;;;7.60;86.00;;;;;;5060519;28;20191;-71
2022/11/29 07:50:02;;;;;;;87.63;54.63;;;7.60;86.00;;;;;;5059183;28;20212;-72
2022/11/29 07:52:30;;;;;;;68.95;45.00;;;7.60;86.00;;;;;;5053555;28;20278;-70
2022/11/29 07:55:00;;;;;;;51.95;31.13;;;7.60;86.20;;;;;;5057524;28;20224;-71
2022/11/29 07:57:28;;;;;;;69.55;40.47;;;7.60;86.20;;;;;;5053668;28;20235;-70
2022/11/29 07:59:56;;;;;;;71.53;40.78;;;7.60;86.20;;;;;;5056798;28;20204;-71
2022/11/29 08:02:28;;;;;;;75.18;41.03;;;7.60;86.30;;;;;;5058427;28;20238;-70
2022/11/29 08:04:56;;;;;;;64.35;36.10;;;7.60;86.50;;;;;;5057835;28;20554;-70
2022/11/29 08:07:24;;;;;;;64.43;34.78;;;7.70;86.50;;;;;;5062428;28;20200;-70
2022/11/29 08:09:52;;;;;;;70.15;41.60;;;7.70;86.50;;;;;;5056976;28;20615;-71
2022/11/29 08:12:21;;;;;;;63.60;37.63;;;7.70;86.50;;;;;;5057383;28;20227;-71
2022/11/29 08:14:49;;;;;;;59.17;33.40;;;7.70;86.40;;;;;;5055090;28;20200;-71
2022/11/29 08:17:18;;;;;;;55.17;32.30;;;7.80;86.30;;;;;;5055115;28;20212;-71
2022/11/29 08:19:46;;;;;;;54.58;32.20;;;7.70;86.20;;;;;;5059251;28;20211;-70
2022/11/29 08:22:14;;;;;;;53.80;29.95;;;7.70;86.20;;;;;;5058327;28;20864;-70
2022/11/29 08:24:42;;;;;;;54.03;29.92;;;7.70;86.20;;;;;;5051719;28;20204;-72
2022/11/29 08:27:10;;;;;;;48.88;31.73;;;7.70;86.30;;;;;;5060419;28;20194;-70
2022/11/29 08:29:40;;;;;;;59.90;35.70;;;7.70;86.30;;;;;;5054237;28;20208;-70
2022/11/29 08:32:08;;;;;;;59.60;35.70;;;7.70;86.30;;;;;;5059692;28;20235;-71
2022/11/29 08:34:36;;;;;;;63.58;32.38;;;7.70;86.20;;;;;;5056720;28;20211;-70
2022/11/29 08:37:04;;;;;;;55.30;32.08;;;7.70;86.30;;;;;;5062121;28;20698;-69
2022/11/29 08:39:32;;;;;;;55.05;32.40;;;7.70;86.40;;;;;;5061293;28;20674;-71
2022/11/29 08:42:00;;;;;;;47.60;29.85;;;7.70;86.40;;;;;;5059924;28;20231;-71
2022/11/29 08:44:28;;;;;;;52.28;30.63;;;7.70;86.40;;;;;;5065311;28;20616;-69
2022/11/29 08:55:11;;;;;;;63.78;34.63;;;7.80;86.50;;;;;;5068456;28;20223;-71
2022/11/29 08:57:39;;;;;;;54.95;33.92;;;7.80;86.50;;;;;;5066706;28;20215;-71
2022/11/29 09:00:09;;;;;;;49.05;29.25;;;7.80;86.50;;;;;;5064510;28;20205;-71
2022/11/29 09:02:39;;;;;;;51.05;32.50;;;7.90;86.60;;;;;;5065007;28;20228;-72
2022/11/29 09:05:08;;;;;;;55.20;30.73;;;7.90;86.40;;;;;;5065449;28;20196;-71
2022/11/29 09:07:37;;;;;;;54.05;30.30;;;7.90;86.40;;;;;;5066453;28;20211;-72
2022/11/29 09:10:07;;;;;;;54.42;31.40;;;7.90;86.50;;;;;;5067198;28;20212;-72
2022/11/29 09:12:36;;;;;;;73.50;44.97;;;8.00;86.50;;;;;;5065888;28;20224;-73
2022/11/29 09:15:06;;;;;;;63.45;35.83;;;8.00;86.50;;;;;;5067503;28;20210;-69
2022/11/29 09:17:34;;;;;;;61.75;36.00;;;8.00;86.30;;;;;;5064444;28;20292;-72
2022/11/29 09:20:05;;;;;;;68.18;35.22;;;8.00;86.30;;;;;;5063640;28;20208;-71
2022/11/29 09:22:33;;;;;;;71.40;42.78;;;8.10;86.30;;;;;;5062533;28;20232;-74
2022/11/29 09:25:01;;;;;;;62.60;35.85;;;8.10;86.30;;;;;;5062294;28;20196;-71
2022/11/29 09:27:29;;;;;;;53.70;30.60;;;8.10;86.30;;;;;;5063274;28;20231;-70
2022/11/29 09:29:57;;;;;;;58.63;35.45;;;8.10;86.20;;;;;;5059798;28;20204;-71
2022/11/29 09:32:25;;;;;;;58.47;30.65;;;8.10;86.10;;;;;;5060443;28;20240;-71
2022/11/29 09:34:53;;;;;;;52.95;29.42;;;8.00;86.20;;;;;;5053650;28;20253;-72
2022/11/29 09:37:22;;;;;;;55.60;32.15;;;8.10;86.10;;;;;;5060699;28;20197;-72
2022/11/29 09:39:50;;;;;;;54.75;31.42;;;8.10;86.20;;;;;;5057529;28;20262;-71
2022/11/29 09:42:35;;;;;;;55.85;30.60;;;8.10;86.10;;;;;;5056902;28;20285;-71
2022/11/29 09:45:06;;;;;;;55.55;29.92;;;8.10;86.00;;;;;;5059212;28;20207;-72
2022/11/29 09:47:56;;;;;;;54.45;28.98;;;8.00;85.90;;;;;;5056768;28;20208;-71
2022/11/29 09:50:31;;;;;;;63.80;35.60;;;8.00;85.90;;;;;;5017560;28;21472;-71
2022/11/29 09:53:22;;;;;;;57.10;30.73;;;8.00;86.10;;;;;;5057276;28;20216;-73
2022/11/29 09:56:01;;;;;;;52.43;29.13;;;8.00;86.20;;;;;;5060833;28;20211;-70
2022/11/29 09:58:33;;;;;;;82.07;37.78;;;8.00;86.30;;;;;;5062251;28;20450;-72
2022/11/29 10:01:06;;;;;;;77.70;39.80;;;8.10;86.20;;;;;;5059349;28;20211;-71
2022/11/29 10:03:39;;;;;;;100.75;46.35;;;8.10;86.10;;;;;;5056055;28;20204;-71
2022/11/29 10:06:12;;;;;;;82.35;43.95;;;8.10;86.10;;;;;;5062023;28;20204;-71
2022/11/29 10:08:45;;;;;;;72.22;36.40;;;8.10;86.20;;;;;;5059517;28;20212;-70
2022/11/29 10:11:19;;;;;;;59.33;32.92;;;8.10;86.10;;;;;;5061964;28;20203;-70
2022/11/29 10:13:51;;;;;;;51.08;29.30;;;8.10;86.00;;;;;;5058663;28;20216;-71
2022/11/29 10:16:25;;;;;;;52.58;27.35;;;8.20;86.10;;;;;;5061402;28;20208;-71
2022/11/29 10:19:00;;;;;;;51.20;28.00;;;8.20;86.00;;;;;;5056260;28;20254;-73
2022/11/29 10:21:32;;;;;;;57.90;31.42;;;8.20;86.00;;;;;;5061598;28;20227;-71
2022/11/29 10:24:05;;;;;;;54.13;28.30;;;8.20;86.00;;;;;;5060570;28;20196;-71
2022/11/29 10:26:33;;;;;;;86.30;40.60;;;8.20;85.90;;;;;;5062819;28;20694;-71
2022/11/29 10:29:02;;;;;;;63.80;34.05;;;8.20;85.90;;;;;;5061148;28;20461;-73
2022/11/29 10:31:34;;;;;;;50.92;27.00;;;8.20;85.90;;;;;;5054767;28;20234;-72
2022/11/29 10:34:12;;;;;;;54.55;29.85;;;8.20;85.80;;;;;;5061952;28;20215;-71
2022/11/29 10:36:43;;;;;;;50.42;29.40;;;8.20;85.90;;;;;;5059826;28;20214;-71
2022/11/29 10:39:16;;;;;;;55.17;30.08;;;8.30;85.90;;;;;;5059256;28;20201;-72
2022/11/29 10:41:45;;;;;;;49.53;28.27;;;8.30;85.90;;;;;;5059211;28;20762;-71
2022/11/29 10:44:14;;;;;;;46.97;26.33;;;8.30;85.90;;;;;;5057410;28;20201;-71
2022/11/29 10:46:42;;;;;;;44.93;25.57;;;8.30;85.90;;;;;;5063058;28;20227;-72
2022/11/29 10:49:14;;;;;;;54.00;28.90;;;8.40;85.90;;;;;;5060294;28;20461;-70
2022/11/29 10:51:43;;;;;;;50.03;25.70;;;8.40;85.80;;;;;;5056982;28;20490;-71
2022/11/29 10:54:32;;;;;;;50.85;28.98;;;8.30;85.60;;;;;;5056310;28;20213;-71
2022/11/29 10:57:01;;;;;;;47.30;25.95;;;8.30;85.50;;;;;;5056278;28;20562;-70
2022/11/29 10:59:31;;;;;;;62.78;28.67;;;8.30;85.50;;;;;;5057567;28;20209;-71
2022/11/29 11:02:02;;;;;;;57.15;29.20;;;8.20;85.60;;;;;;5058779;28;20224;-71
2022/11/29 11:04:33;;;;;;;55.60;27.40;;;8.20;85.60;;;;;;5056786;28;20205;-72
2022/11/29 11:07:04;;;;;;;50.10;28.75;;;8.20;85.60;;;;;;5060532;28;20234;-71
2022/11/29 11:09:36;;;;;;;51.87;28.47;;;8.10;85.60;;;;;;5057098;28;20209;-72
2022/11/29 11:12:07;;;;;;;54.47;28.90;;;8.10;85.70;;;;;;5058266;28;20481;-71
2022/11/29 11:14:37;;;;;;;62.72;31.33;;;8.10;85.80;;;;;;5059944;28;20228;-70
2022/11/29 11:17:21;;;;;;;56.50;30.40;;;8.10;85.80;;;;;;5057695;28;20208;-72
2022/11/29 11:19:56;;;;;;;68.72;36.20;;;8.10;85.90;;;;;;5062212;28;20564;-70
2022/11/29 11:22:25;;;;;;;53.90;29.50;;;8.20;86.00;;;;;;5057696;28;20233;-71
2022/11/29 11:25:00;;;;;;;55.10;29.67;;;8.20;86.00;;;;;;5052169;28;20192;-69
2022/11/29 11:27:33;;;;;;;58.90;31.20;;;8.30;85.90;;;;;;5057983;28;20614;-70
2022/11/29 11:30:02;;;;;;;58.17;31.63;;;8.30;85.80;;;;;;5059847;28;20679;-72
2022/11/29 11:32:30;;;;;;;60.05;32.97;;;8.30;85.70;;;;;;5058289;28;20466;-72
2022/11/29 11:35:00;;;;;;;67.10;34.40;;;8.20;85.80;;;;;;5053874;28;20213;-72
2022/11/29 11:37:29;;;;;;;61.13;31.02;;;8.20;85.80;;;;;;5074324;28;20658;-72
2022/11/29 11:40:00;;;;;;;57.58;31.70;;;8.20;85.70;;;;;;5060310;28;20940;-72
2022/11/29 11:42:38;;;;;;;62.15;30.88;;;8.20;85.80;;;;;;5057067;28;20635;-69
2022/11/29 11:45:30;;;;;;;66.63;31.48;;;8.20;85.70;;;;;;5057643;28;20272;-69
2022/11/29 11:48:01;;;;;;;60.50;31.23;;;8.20;85.90;;;;;;5060892;28;20208;-71
2022/11/29 11:50:32;;;;;;;65.95;29.83;;;8.10;85.90;;;;;;5059241;28;20211;-71
2022/11/29 11:53:06;;;;;;;59.58;29.85;;;8.20;85.90;;;;;;5057021;28;20243;-71
2022/11/29 11:55:39;;;;;;;62.30;30.63;;;8.20;85.90;;;;;;5060231;28;20323;-71
2022/11/29 11:58:17;;;;;;;62.97;31.80;;;8.20;85.80;;;;;;5057010;28;20209;-72
2022/11/29 12:00:48;;;;;;;60.28;29.55;;;8.20;86.00;;;;;;5059090;28;20222;-71
2022/11/29 12:03:45;;;;;;;61.05;28.80;;;8.20;85.90;;;;;;5055475;28;20239;-71
2022/11/29 12:06:28;;;;;;;56.42;28.25;;;8.20;86.00;;;;;;5057002;28;20211;-72
2022/11/29 12:09:02;;;;;;;51.72;27.23;;;8.20;86.10;;;;;;5053896;28;20211;-70
2022/11/29 12:11:37;;;;;;;53.15;28.77;;;8.20;86.10;;;;;;5055787;28;20224;-72
2022/11/29 12:14:07;;;;;;;57.17;28.87;;;8.20;86.10;;;;;;5052278;28;20266;-71
2022/11/29 12:16:39;;;;;;;54.87;27.43;;;8.30;86.20;;;;;;5053143;28;20474;-71
2022/11/29 12:19:15;;;;;;;53.05;27.50;;;8.30;86.10;;;;;;5056462;28;20458;-73
2022/11/29 12:21:47;;;;;;;52.20;28.25;;;8.30;86.10;;;;;;5059003;28;20713;-73
2022/11/29 12:24:23;;;;;;;57.03;29.33;;;8.30;86.10;;;;;;5057949;28;20206;-71
2022/11/29 12:26:55;;;;;;;49.35;25.80;;;8.40;86.20;;;;;;5057918;28;20773;-72
2022/11/29 12:29:29;;;;;;;79.18;34.53;;;8.40;86.10;;;;;;5055185;28;20234;-73
2022/11/29 12:32:07;;;;;;;77.65;34.72;;;8.40;86.00;;;;;;5055161;28;20635;-71
2022/11/29 12:35:04;;;;;;;143.90;44.20;;;8.40;86.10;;;;;;5055215;28;20258;-73
2022/11/29 12:37:37;;;;;;;209.37;63.63;;;8.40;85.90;;;;;;5060262;28;20449;-71
2022/11/29 12:40:11;;;;;;;131.93;47.40;;;8.30;86.00;;;;;;5059426;28;20453;-70
2022/11/29 12:42:51;;;;;;;64.28;32.13;;;8.30;85.90;;;;;;5051027;28;20483;-70
2022/11/29 12:45:36;;;;;;;63.00;31.80;;;8.30;86.00;;;;;;5053101;28;20221;-70
2022/11/29 12:48:13;;;;;;;50.58;27.58;;;8.30;86.10;;;;;;5057534;28;21004;-72
2022/11/29 12:50:52;;;;;;;55.65;30.15;;;8.30;86.20;;;;;;5059834;28;20211;-71
2022/11/29 12:53:38;;;;;;;70.40;32.67;;;8.40;86.20;;;;;;5057683;28;20228;-71
2022/11/29 12:56:15;;;;;;;50.55;29.30;;;8.40;86.10;;;;;;5054003;28;20590;-71
2022/11/29 12:59:06;;;;;;;49.83;26.00;;;8.40;86.10;;;;;;5056081;28;20196;-71
2022/11/29 13:01:45;;;;;;;46.83;27.73;;;8.40;86.20;;;;;;5056811;28;20220;-71
2022/11/29 13:04:23;;;;;;;51.40;27.33;;;8.40;86.20;;;;;;5057834;28;20473;-71
2022/11/29 13:06:58;;;;;;;51.60;27.67;;;8.40;86.20;;;;;;5057644;28;20473;-71
2022/11/29 13:09:47;;;;;;;50.75;26.75;;;8.40;86.10;;;;;;5052474;28;20204;-72
2022/11/29 13:12:25;;;;;;;55.40;29.52;;;8.40;86.00;;;;;;5055171;28;20223;-73
2022/11/29 13:15:01;;;;;;;60.30;30.57;;;8.40;86.00;;;;;;5056167;28;20208;-71
2022/11/29 13:17:39;;;;;;;58.72;30.27;;;8.30;86.00;;;;;;5054329;28;20449;-72
2022/11/29 13:20:23;;;;;;;65.70;33.42;;;8.30;86.10;;;;;;5056443;28;20197;-71
2022/11/29 13:22:56;;;;;;;70.88;36.30;;;8.30;86.20;;;;;;5058078;28;20267;-71
2022/11/29 13:25:28;;;;;;;57.23;30.00;;;8.30;86.20;;;;;;5056623;28;20872;-70
2022/11/29 13:28:00;;;;;;;55.63;28.80;;;8.30;86.40;;;;;;5058756;28;20968;-73
2022/11/29 13:30:29;;;;;;;67.20;30.37;;;8.30;86.40;;;;;;5054433;28;20471;-73
2022/11/29 13:33:02;;;;;;;131.20;43.28;;;8.40;86.40;;;;;;5057604;28;20531;-70